Impacts TAF Board INFO
FOR SITUATIONAL AWARENESS. NOT TO BE USED FOR FLIGHT PLANNING PURPOSES.
IDs:

KSTL - St Louis/Lambert Int, MO, US

Issued at 0242 UTC 13 Dec 2017
Updated at 0327 UTC 13 Dec 2017
Potential Impact None Slight Moderate High
Time0251Z 13/04Z 13/05Z 13/06Z 13/07Z 13/08Z 13/09Z 13/10Z 13/11Z 13/12Z 13/13Z 13/14Z 13/15Z 13/16Z>>
Type OBS PRVL PRVL PRVL PRVL PRVL PRVL PRVL PRVL PRVL PRVL PRVL PRVL PRVL
VIS 10 >6 >6 >6 >6 >6 >6 >6 >6 >6 >6 >6 >6 >6
CIG -- -- -- -- -- -- -- -- -- -- -- -- -- --
Cover CLR FEW FEW FEW FEW FEW FEW FEW FEW FEW FEW FEW SCT SCT
FltCat VFR VFR VFR VFR VFR VFR VFR VFR VFR VFR VFR VFR VFR VFR
WX -- -- -- -- -- -- -- -- -- -- -- -- -- --
WDir 240 250 230 230 230 230 230 230 190 190 190 190 220 220
WSpd 4 5 4 4 4 4 4 4 9 9 9 9 14 14
WGst -- -- -- -- -- -- -- -- -- -- -- -- 24 24

Raw TAF
KSTL 130242Z 1303/1406 25005KT P6SM FEW200
  FM130500 23004KT P6SM FEW250
  FM131100 19009KT P6SM FEW080 WS012/24035KT
  FM131500 22014G24KT P6SM SCT110 WS012/24040KT
  FM131700 25015G29KT P6SM SCT250
  FM132100 29016G26KT P6SM BKN080
  FM140300 31009KT P6SM BKN050


Raw METAR
KSTL 130251Z 24004KT 10SM CLR M02/M15 A3009 RMK AO2 SLP203 T10221150 58014
KSTL 130151Z 25004KT 10SM FEW120 M01/M16 A3011 RMK AO2 SLP208 T10111156
KSTL 130051Z 29007KT 10SM SCT110 M01/M16 A3012 RMK AO2 SLP212 T10111161

METAR Board
Radar Display
Forecast Discussion

FOR SITUATIONAL AWARENESS. NOT TO BE USED FOR FLIGHT PLANNING PURPOSES.